createdAt,value
2019-03-27T00:05:05.140Z,2.00
2019-03-27T00:10:11.310Z,2.07
2019-03-27T00:15:17.051Z,2.33
2019-03-27T00:20:22.377Z,2.00
2019-03-27T00:25:27.846Z,2.20
2019-03-27T00:30:33.535Z,2.60
2019-03-27T00:35:39.191Z,2.40
2019-03-27T00:40:44.952Z,2.50
2019-03-27T00:45:50.333Z,2.40
2019-03-27T00:50:55.722Z,2.20
2019-03-27T00:56:01.032Z,2.40
2019-03-27T01:01:14.301Z,2.37
2019-03-27T01:06:20.019Z,2.30
2019-03-27T01:11:27.604Z,2.10
2019-03-27T01:16:32.938Z,2.07
2019-03-27T01:21:38.292Z,2.17
2019-03-27T01:26:43.608Z,2.43
2019-03-27T01:31:48.980Z,2.33
2019-03-27T01:36:54.343Z,2.50
2019-03-27T01:41:59.762Z,2.53
2019-03-27T01:47:05.150Z,2.70
2019-03-27T01:52:10.465Z,2.80
2019-03-27T01:57:15.820Z,2.70
2019-03-27T02:02:21.338Z,3.00
2019-03-27T02:07:27.255Z,2.80
2019-03-27T02:17:49.513Z,2.63
2019-03-27T02:22:54.809Z,2.53
2019-03-27T02:28:00.981Z,2.50
2019-03-27T02:33:06.307Z,3.00
2019-03-27T02:38:11.632Z,2.93
2019-03-27T02:43:16.952Z,3.70
2019-03-27T02:48:22.236Z,4.10
2019-03-27T02:53:27.546Z,3.80
2019-03-27T02:58:32.976Z,3.13
2019-03-27T03:03:38.289Z,5.13
2019-03-27T03:08:43.549Z,4.23
2019-03-27T03:13:48.794Z,4.27
2019-03-27T03:18:54.031Z,5.10
2019-03-27T03:23:59.271Z,4.93
2019-03-27T03:29:05.107Z,5.80
2019-03-27T03:34:10.414Z,5.40
2019-03-27T03:39:16.916Z,5.63
2019-03-27T03:44:22.254Z,5.73
2019-03-27T03:49:27.530Z,5.87
2019-03-27T03:54:33.349Z,6.17
2019-03-27T03:59:39.938Z,5.60
2019-03-27T04:04:47.051Z,6.03
2019-03-27T04:09:52.337Z,6.30
2019-03-27T04:14:57.560Z,5.73
2019-03-27T04:20:02.825Z,6.50
2019-03-27T04:25:08.146Z,5.67
2019-03-27T04:30:13.669Z,5.65
2019-03-27T04:35:18.921Z,5.50
2019-03-27T04:40:24.141Z,5.03
2019-03-27T04:45:29.343Z,5.80
2019-03-27T04:50:34.559Z,6.47
2019-03-27T04:55:39.807Z,5.57
2019-03-27T05:00:45.038Z,5.67
2019-03-27T05:05:50.393Z,5.30
2019-03-27T05:10:56.588Z,5.10
2019-03-27T05:16:02.774Z,5.17
2019-03-27T05:21:07.983Z,5.37
2019-03-27T05:26:13.220Z,4.93
2019-03-27T05:31:18.446Z,4.97
2019-03-27T05:36:23.682Z,5.07
2019-03-27T05:41:28.875Z,4.87
2019-03-27T05:46:34.097Z,5.27
2019-03-27T05:51:39.681Z,5.30
2019-03-27T05:56:44.881Z,5.27
2019-03-27T06:01:50.151Z,4.77
2019-03-27T06:06:55.440Z,5.10
2019-03-27T06:12:00.665Z,4.90
2019-03-27T06:17:05.875Z,5.60
2019-03-27T06:22:11.089Z,5.17
2019-03-27T06:27:16.318Z,5.60
2019-03-27T06:32:21.604Z,6.33
2019-03-27T06:37:26.848Z,6.20
2019-03-27T06:42:32.086Z,6.67
2019-03-27T06:47:38.470Z,6.07
2019-03-27T06:52:43.824Z,6.17
2019-03-27T06:57:49.039Z,6.20
2019-03-27T07:02:54.235Z,6.03
2019-03-27T07:07:59.516Z,6.00
2019-03-27T07:13:06.000Z,5.73
2019-03-27T07:18:11.355Z,5.60
2019-03-27T07:23:16.673Z,5.83
2019-03-27T07:28:22.113Z,5.50
2019-03-27T07:33:27.570Z,5.77
2019-03-27T07:38:32.899Z,5.67
2019-03-27T07:43:38.263Z,5.20
2019-03-27T07:48:53.181Z,4.23
2019-03-27T07:53:50.648Z,4.17
2019-03-27T07:58:56.105Z,3.97
2019-03-27T08:04:02.524Z,3.80
2019-03-27T08:09:08.629Z,4.40
2019-03-27T08:14:14.181Z,4.43
2019-03-27T08:19:19.653Z,4.20
2019-03-27T08:24:25.091Z,4.67
2019-03-27T08:29:30.705Z,4.57
2019-03-27T08:34:36.022Z,4.87
2019-03-27T08:39:41.386Z,4.40
2019-03-27T08:44:46.691Z,4.67
2019-03-27T08:49:52.054Z,4.70
2019-03-27T08:54:57.496Z,4.33
2019-03-27T09:00:02.932Z,4.43
2019-03-27T09:05:10.054Z,4.80
2019-03-27T09:10:15.728Z,4.58
2019-03-27T09:15:21.114Z,4.30
2019-03-27T09:25:37.940Z,4.67
2019-03-27T09:30:43.319Z,5.20
2019-03-27T09:35:48.717Z,4.83
2019-03-27T09:40:54.168Z,4.57
2019-03-27T09:45:59.494Z,4.97
2019-03-27T09:51:05.184Z,4.30
2019-03-27T09:56:18.946Z,4.40
2019-03-27T10:01:17.610Z,4.37
2019-03-27T10:06:23.098Z,4.40
2019-03-27T10:11:28.631Z,4.53
2019-03-27T10:16:33.937Z,4.07
2019-03-27T10:21:40.362Z,4.23
2019-03-27T10:26:45.818Z,4.27
2019-03-27T10:31:51.317Z,3.90
2019-03-27T10:36:57.159Z,3.63
2019-03-27T10:42:02.805Z,4.03
2019-03-27T10:47:08.226Z,4.03
2019-03-27T10:52:13.525Z,3.60
2019-03-27T10:57:18.918Z,3.72
2019-03-27T11:02:24.239Z,4.10
2019-03-27T11:07:29.437Z,4.40
2019-03-27T11:12:34.723Z,3.93
2019-03-27T11:17:40.035Z,4.07
2019-03-27T11:22:45.339Z,4.97
2019-03-27T11:27:50.556Z,5.10
2019-03-27T11:32:55.772Z,5.30
2019-03-27T11:38:01.064Z,4.93
2019-03-27T11:43:06.624Z,5.30
2019-03-27T11:48:11.893Z,5.40
2019-03-27T11:53:17.213Z,4.80
2019-03-27T11:58:22.641Z,5.13
2019-03-27T12:03:27.896Z,5.00
2019-03-27T12:08:33.162Z,4.70
2019-03-27T12:13:38.372Z,4.60
2019-03-27T12:18:44.526Z,4.60
2019-03-27T12:23:49.865Z,4.27
2019-03-27T12:28:55.098Z,3.97
2019-03-27T12:34:00.497Z,3.70
2019-03-27T12:39:07.237Z,3.57
2019-03-27T12:44:12.515Z,3.93
2019-03-27T12:49:17.737Z,4.00
2019-03-27T12:54:23.124Z,3.70
2019-03-27T12:59:28.483Z,3.60
2019-03-27T13:04:33.701Z,3.57
2019-03-27T13:09:39.079Z,3.83
2019-03-27T13:14:44.393Z,3.47
2019-03-27T13:19:49.602Z,3.50
2019-03-27T13:24:54.989Z,3.15
2019-03-27T13:30:00.398Z,3.13
2019-03-27T13:35:07.268Z,2.93
2019-03-27T13:40:14.095Z,2.92
2019-03-27T13:45:20.768Z,3.45
2019-03-27T13:50:26.219Z,2.50
2019-03-27T13:55:34.820Z,3.00
2019-03-27T14:00:38.354Z,2.30
2019-03-27T14:05:43.566Z,2.20
2019-03-27T14:10:48.787Z,2.50
2019-03-27T14:15:53.991Z,2.85
2019-03-27T14:20:59.228Z,2.83
2019-03-27T14:26:05.459Z,2.40
2019-03-27T14:31:11.002Z,2.60
2019-03-27T14:36:16.666Z,3.10
2019-03-27T14:41:21.884Z,3.00
2019-03-27T14:46:27.186Z,3.50
2019-03-27T14:51:32.636Z,3.40
2019-03-27T14:56:37.909Z,2.73
2019-03-27T15:01:43.304Z,2.77
2019-03-27T15:07:06.077Z,3.07
2019-03-27T15:12:11.480Z,3.27
2019-03-27T15:17:16.848Z,3.90
2019-03-27T15:22:23.003Z,3.57
2019-03-27T15:27:30.044Z,3.37
2019-03-27T15:32:35.619Z,3.17
2019-03-27T15:37:41.975Z,3.17
2019-03-27T15:42:47.365Z,3.05
2019-03-27T15:47:52.591Z,3.10
2019-03-27T15:52:58.302Z,2.73
2019-03-27T15:58:03.773Z,2.93
2019-03-27T16:03:09.078Z,3.08
2019-03-27T16:08:14.381Z,3.23
2019-03-27T16:13:20.694Z,3.10
2019-03-27T16:18:26.036Z,3.22
2019-03-27T16:23:32.413Z,3.55
2019-03-27T16:28:37.743Z,3.42
2019-03-27T16:33:43.017Z,3.60
2019-03-27T16:38:48.263Z,3.87
2019-03-27T16:43:53.478Z,3.87
2019-03-27T16:48:58.766Z,4.00
2019-03-27T16:54:05.034Z,4.08
2019-03-27T16:59:10.289Z,3.80
2019-03-27T17:04:15.557Z,4.30
2019-03-27T17:09:20.852Z,4.53
2019-03-27T17:14:26.151Z,4.77
2019-03-27T17:19:31.369Z,4.10
2019-03-27T17:24:36.643Z,4.00
2019-03-27T17:29:42.054Z,4.12
2019-03-27T17:34:47.418Z,4.28
2019-03-27T17:39:52.648Z,4.15
2019-03-27T17:44:58.138Z,4.78
2019-03-27T17:50:03.466Z,4.12
2019-03-27T17:55:09.062Z,3.90
2019-03-27T18:00:18.298Z,4.05
2019-03-27T18:05:23.537Z,3.70
2019-03-27T18:10:28.738Z,3.47
2019-03-27T18:15:35.193Z,3.50
2019-03-27T18:20:40.400Z,3.60
2019-03-27T18:25:45.809Z,3.83
2019-03-27T18:30:51.502Z,3.93
2019-03-27T18:35:57.040Z,3.80
2019-03-27T18:41:02.381Z,4.60
2019-03-27T18:46:07.635Z,3.53
2019-03-27T18:51:12.992Z,4.33
2019-03-27T18:56:18.320Z,3.80
2019-03-27T19:01:23.982Z,3.77
2019-03-27T19:06:29.387Z,3.23
2019-03-27T19:11:34.815Z,3.53
2019-03-27T19:16:40.141Z,3.58
2019-03-27T19:21:45.620Z,3.47
2019-03-27T19:26:50.989Z,3.63
2019-03-27T19:31:56.407Z,3.30
2019-03-27T19:37:02.002Z,3.67
2019-03-27T19:42:07.465Z,3.67
2019-03-27T19:47:12.840Z,3.80
2019-03-27T19:52:18.200Z,3.30
2019-03-27T19:57:24.235Z,3.27
2019-03-27T20:02:30.134Z,3.63
2019-03-27T20:07:36.452Z,3.57
2019-03-27T20:12:42.130Z,3.90
2019-03-27T20:17:47.383Z,3.40
2019-03-27T20:22:52.787Z,4.03
2019-03-27T20:27:58.057Z,4.20
2019-03-27T20:33:03.538Z,4.43
2019-03-27T20:38:08.791Z,4.87
2019-03-27T20:43:14.055Z,4.90
2019-03-27T20:48:19.253Z,5.30
2019-03-27T20:53:24.500Z,5.23
2019-03-27T20:58:29.736Z,5.43
2019-03-27T21:03:35.029Z,5.77
2019-03-27T21:08:40.244Z,5.30
2019-03-27T21:13:45.497Z,6.77
2019-03-27T21:18:50.750Z,6.33
2019-03-27T21:23:56.321Z,6.43
2019-03-27T21:29:01.581Z,6.73
2019-03-27T21:34:06.833Z,7.10
2019-03-27T21:39:12.584Z,7.47
2019-03-27T21:44:18.106Z,7.53
2019-03-27T21:49:23.446Z,7.80
2019-03-27T21:54:28.692Z,7.30
2019-03-27T21:59:33.935Z,7.47
2019-03-27T22:04:39.212Z,7.87
2019-03-27T22:09:44.784Z,7.70
2019-03-27T22:14:51.115Z,7.27
2019-03-27T22:19:56.758Z,6.77
2019-03-27T22:25:02.145Z,7.10
2019-03-27T22:30:08.740Z,7.20
2019-03-27T22:35:15.029Z,6.07
2019-03-27T22:40:20.263Z,6.28
2019-03-27T22:45:25.481Z,6.70
2019-03-27T22:50:30.660Z,6.53
2019-03-27T22:55:48.581Z,5.87
2019-03-27T23:00:50.971Z,5.70
2019-03-27T23:05:56.392Z,6.73
2019-03-27T23:11:01.609Z,6.07
2019-03-27T23:16:06.854Z,5.73
2019-03-27T23:21:12.093Z,6.10
2019-03-27T23:26:17.396Z,5.60
2019-03-27T23:31:22.689Z,5.60
2019-03-27T23:36:27.920Z,5.87
2019-03-27T23:41:33.483Z,5.70
2019-03-27T23:46:38.981Z,5.90
2019-03-27T23:51:44.225Z,5.40
2019-03-27T23:56:49.445Z,5.37
